sensor_id;sensor_type;location;lat;lon;timestamp;pressure;altitude;pressure_sealevel;temperature;humidity
59825;BME280;45703;50.898;6.054;2023-02-13T00:02:07;102233.53;;;4.38;100.00
59825;BME280;45703;50.898;6.054;2023-02-13T00:04:33;102227.53;;;4.36;100.00
59825;BME280;45703;50.898;6.054;2023-02-13T00:06:58;102226.72;;;4.36;100.00
59825;BME280;45703;50.898;6.054;2023-02-13T00:09:24;102229.47;;;4.34;100.00
59825;BME280;45703;50.898;6.054;2023-02-13T00:11:49;102223.38;;;4.34;100.00
59825;BME280;45703;50.898;6.054;2023-02-13T00:14:14;102221.66;;;4.33;100.00
59825;BME280;45703;50.898;6.054;2023-02-13T00:16:40;102226.13;;;4.32;100.00
59825;BME280;45703;50.898;6.054;2023-02-13T00:19:05;102224.47;;;4.31;100.00
59825;BME280;45703;50.898;6.054;2023-02-13T00:21:30;102224.47;;;4.31;100.00
59825;BME280;45703;50.898;6.054;2023-02-13T00:23:55;102219.28;;;4.30;100.00
59825;BME280;45703;50.898;6.054;2023-02-13T00:26:21;102219.28;;;4.30;100.00
59825;BME280;45703;50.898;6.054;2023-02-13T00:28:46;102221.94;;;4.30;100.00
59825;BME280;45703;50.898;6.054;2023-02-13T00:31:12;102225.53;;;4.29;100.00
59825;BME280;45703;50.898;6.054;2023-02-13T00:33:38;102228.88;;;4.31;100.00
59825;BME280;45703;50.898;6.054;2023-02-13T00:36:04;102232.50;;;4.30;100.00
59825;BME280;45703;50.898;6.054;2023-02-13T00:38:30;102225.44;;;4.30;100.00
59825;BME280;45703;50.898;6.054;2023-02-13T00:40:55;102228.88;;;4.31;100.00
59825;BME280;45703;50.898;6.054;2023-02-13T00:43:21;102217.50;;;4.30;100.00
59825;BME280;45703;50.898;6.054;2023-02-13T00:45:46;102217.50;;;4.30;100.00
59825;BME280;45703;50.898;6.054;2023-02-13T00:48:11;102227.22;;;4.30;100.00
59825;BME280;45703;50.898;6.054;2023-02-13T00:50:36;102215.81;;;4.29;100.00
59825;BME280;45703;50.898;6.054;2023-02-13T00:53:02;102210.53;;;4.29;100.00
59825;BME280;45703;50.898;6.054;2023-02-13T00:55:27;102208.72;;;4.30;100.00
59825;BME280;45703;50.898;6.054;2023-02-13T00:57:52;102210.81;;;4.26;100.00
59825;BME280;45703;50.898;6.054;2023-02-13T01:00:18;102201.31;;;4.24;100.00
59825;BME280;45703;50.898;6.054;2023-02-13T01:02:43;102201.47;;;4.22;100.00
59825;BME280;45703;50.898;6.054;2023-02-13T01:05:08;102203.53;;;4.19;100.00
59825;BME280;45703;50.898;6.054;2023-02-13T01:07:34;102196.72;;;4.17;100.00
59825;BME280;45703;50.898;6.054;2023-02-13T01:09:59;102202.13;;;4.15;100.00
59825;BME280;45703;50.898;6.054;2023-02-13T01:12:24;102198.78;;;4.13;100.00
59825;BME280;45703;50.898;6.054;2023-02-13T01:14:50;102200.72;;;4.11;100.00
59825;BME280;45703;50.898;6.054;2023-02-13T01:17:16;102196.41;;;4.10;100.00
59825;BME280;45703;50.898;6.054;2023-02-13T01:19:41;102199.03;;;4.10;100.00
59825;BME280;45703;50.898;6.054;2023-02-13T01:22:07;102194.72;;;4.09;100.00
59825;BME280;45703;50.898;6.054;2023-02-13T01:24:32;102196.53;;;4.09;100.00
59825;BME280;45703;50.898;6.054;2023-02-13T01:26:58;102197.38;;;4.09;100.00
59825;BME280;45703;50.898;6.054;2023-02-13T01:29:23;102193.91;;;4.09;100.00
59825;BME280;45703;50.898;6.054;2023-02-13T01:31:48;102197.09;;;4.12;100.00
59825;BME280;45703;50.898;6.054;2023-02-13T01:34:14;102194.47;;;4.12;100.00
59825;BME280;45703;50.898;6.054;2023-02-13T01:36:39;102203.25;;;4.13;100.00
59825;BME280;45703;50.898;6.054;2023-02-13T01:39:04;102204.75;;;4.15;100.00
59825;BME280;45703;50.898;6.054;2023-02-13T01:41:30;102200.44;;;4.14;100.00
59825;BME280;45703;50.898;6.054;2023-02-13T01:43:56;102199.63;;;4.14;100.00
59825;BME280;45703;50.898;6.054;2023-02-13T01:46:25;102204.75;;;4.15;100.00
59825;BME280;45703;50.898;6.054;2023-02-13T01:48:52;102197.94;;;4.13;100.00
59825;BME280;45703;50.898;6.054;2023-02-13T01:51:20;102202.38;;;4.12;100.00
59825;BME280;45703;50.898;6.054;2023-02-13T01:54:06;102197.94;;;4.13;100.00
59825;BME280;45703;50.898;6.054;2023-02-13T01:59:00;102193.47;;;4.13;100.00
59825;BME280;45703;50.898;6.054;2023-02-13T02:01:26;102197.09;;;4.12;100.00
59825;BME280;45703;50.898;6.054;2023-02-13T02:04:12;102190.13;;;4.11;100.00
59825;BME280;45703;50.898;6.054;2023-02-13T02:06:40;102202.66;;;4.09;100.00
59825;BME280;45703;50.898;6.054;2023-02-13T02:09:08;102196.78;;;4.06;100.00
59825;BME280;45703;50.898;6.054;2023-02-13T02:11:45;102197.91;;;4.03;100.00
59825;BME280;45703;50.898;6.054;2023-02-13T02:14:15;102194.56;;;4.01;100.00
59825;BME280;45703;50.898;6.054;2023-02-13T02:16:40;102204.41;;;3.99;100.00
59825;BME280;45703;50.898;6.054;2023-02-13T02:19:09;102194.22;;;3.95;100.00
59825;BME280;45703;50.898;6.054;2023-02-13T02:21:57;102198.69;;;3.94;100.00
59825;BME280;45703;50.898;6.054;2023-02-13T02:48:13;102201.59;;;3.71;100.00
59825;BME280;45703;50.898;6.054;2023-02-13T02:51:02;102200.91;;;3.69;100.00
59825;BME280;45703;50.898;6.054;2023-02-13T02:58:41;102198.19;;;3.59;100.00
59825;BME280;45703;50.898;6.054;2023-02-13T03:01:27;102198.44;;;3.56;100.00
59825;BME280;45703;50.898;6.054;2023-02-13T03:06:58;102201.59;;;3.50;100.00
59825;BME280;45703;50.898;6.054;2023-02-13T03:09:29;102193.22;;;3.45;100.00
59825;BME280;45703;50.898;6.054;2023-02-13T03:12:16;102193.59;;;3.41;100.00
59825;BME280;45703;50.898;6.054;2023-02-13T03:15:01;102201.06;;;3.36;100.00
59825;BME280;45703;50.898;6.054;2023-02-13T03:17:27;102204.09;;;3.31;100.00
59825;BME280;45703;50.898;6.054;2023-02-13T03:23:10;102199.47;;;3.24;100.00
59825;BME280;45703;50.898;6.054;2023-02-13T03:28:16;102199.13;;;3.17;100.00
59825;BME280;45703;50.898;6.054;2023-02-13T03:31:06;102193.38;;;3.12;100.00
59825;BME280;45703;50.898;6.054;2023-02-13T03:33:46;102195.56;;;3.07;100.00
59825;BME280;45703;50.898;6.054;2023-02-13T03:41:32;102195.84;;;2.93;100.00
59825;BME280;45703;50.898;6.054;2023-02-13T03:44:22;102194.44;;;2.89;100.00
59825;BME280;45703;50.898;6.054;2023-02-13T03:46:47;102200.06;;;2.85;100.00
59825;BME280;45703;50.898;6.054;2023-02-13T03:49:19;102194.22;;;2.82;100.00
59825;BME280;45703;50.898;6.054;2023-02-13T03:52:27;102200.69;;;2.78;100.00
59825;BME280;45703;50.898;6.054;2023-02-13T03:57:34;102209.09;;;2.72;100.00
59825;BME280;45703;50.898;6.054;2023-02-13T04:00:20;102216.53;;;2.67;100.00
59825;BME280;45703;50.898;6.054;2023-02-13T04:03:06;102214.84;;;2.66;100.00
59825;BME280;45703;50.898;6.054;2023-02-13T04:05:35;102216.06;;;2.62;100.00
59825;BME280;45703;50.898;6.054;2023-02-13T04:08:05;102206.72;;;2.58;100.00
59825;BME280;45703;50.898;6.054;2023-02-13T04:10:45;102207.81;;;2.55;100.00
59825;BME280;45703;50.898;6.054;2023-02-13T04:13:21;102215.84;;;2.54;100.00
59825;BME280;45703;50.898;6.054;2023-02-13T04:22:05;102215.63;;;2.46;100.00
59825;BME280;45703;50.898;6.054;2023-02-13T04:24:47;102211.41;;;2.43;100.00
59825;BME280;45703;50.898;6.054;2023-02-13T04:31:15;102217.31;;;2.36;100.00
59825;BME280;45703;50.898;6.054;2023-02-13T04:33:53;102215.88;;;2.32;100.00
59825;BME280;45703;50.898;6.054;2023-02-13T04:36:18;102211.78;;;2.28;100.00
59825;BME280;45703;50.898;6.054;2023-02-13T04:38:43;102220.88;;;2.24;100.00
59825;BME280;45703;50.898;6.054;2023-02-13T04:41:17;102213.22;;;2.21;100.00
59825;BME280;45703;50.898;6.054;2023-02-13T04:53:23;102206.66;;;2.15;100.00
59825;BME280;45703;50.898;6.054;2023-02-13T04:55:59;102206.75;;;2.14;100.00
59825;BME280;45703;50.898;6.054;2023-02-13T04:58:30;102204.25;;;2.12;100.00
59825;BME280;45703;50.898;6.054;2023-02-13T05:01:18;102203.41;;;2.12;100.00
59825;BME280;45703;50.898;6.054;2023-02-13T05:03:57;102209.53;;;2.12;100.00
59825;BME280;45703;50.898;6.054;2023-02-13T05:06:29;102205.22;;;2.11;100.00
59825;BME280;45703;50.898;6.054;2023-02-13T05:09:10;102206.16;;;2.10;100.00
59825;BME280;45703;50.898;6.054;2023-02-13T05:11:35;102200.03;;;2.10;100.00
59825;BME280;45703;50.898;6.054;2023-02-13T05:14:01;102196.47;;;2.11;100.00
59825;BME280;45703;50.898;6.054;2023-02-13T05:16:26;102204.59;;;2.08;100.00
59825;BME280;45703;50.898;6.054;2023-02-13T05:18:54;102204.84;;;2.05;100.00
59825;BME280;45703;50.898;6.054;2023-02-13T05:21:30;102203.28;;;2.02;100.00
59825;BME280;45703;50.898;6.054;2023-02-13T05:24:18;102203.50;;;1.99;100.00
59825;BME280;45703;50.898;6.054;2023-02-13T05:26:54;102203.75;;;1.96;100.00
59825;BME280;45703;50.898;6.054;2023-02-13T05:29:19;102202.06;;;1.95;100.00
59825;BME280;45703;50.898;6.054;2023-02-13T05:31:54;102202.31;;;1.92;100.00
59825;BME280;45703;50.898;6.054;2023-02-13T05:34:20;102209.50;;;1.90;100.00
59825;BME280;45703;50.898;6.054;2023-02-13T05:36:45;102213.22;;;1.88;100.00
59825;BME280;45703;50.898;6.054;2023-02-13T05:39:11;102212.50;;;1.86;100.00
59825;BME280;45703;50.898;6.054;2023-02-13T05:41:47;102216.09;;;1.85;100.00
59825;BME280;45703;50.898;6.054;2023-02-13T05:44:28;102205.56;;;1.85;100.00
59825;BME280;45703;50.898;6.054;2023-02-13T05:46:53;102214.28;;;1.85;100.00
59825;BME280;45703;50.898;6.054;2023-02-13T05:49:18;102215.22;;;1.84;100.00
59825;BME280;45703;50.898;6.054;2023-02-13T05:51:44;102219.69;;;1.84;100.00
59825;BME280;45703;50.898;6.054;2023-02-13T05:54:12;102216.31;;;1.82;100.00
59825;BME280;45703;50.898;6.054;2023-02-13T05:56:46;102213.78;;;1.80;100.00
59825;BME280;45703;50.898;6.054;2023-02-13T05:59:11;102210.19;;;1.81;100.00
59825;BME280;45703;50.898;6.054;2023-02-13T06:01:37;102205.06;;;1.80;100.00
59825;BME280;45703;50.898;6.054;2023-02-13T06:04:02;102211.28;;;1.79;100.00
59825;BME280;45703;50.898;6.054;2023-02-13T06:06:29;102205.28;;;1.77;100.00
59825;BME280;45703;50.898;6.054;2023-02-13T06:08:54;102204.56;;;1.75;100.00
59825;BME280;45703;50.898;6.054;2023-02-13T06:11:20;102203.72;;;1.74;100.00
59825;BME280;45703;50.898;6.054;2023-02-13T06:14:00;102203.84;;;1.73;100.00
59825;BME280;45703;50.898;6.054;2023-02-13T06:16:42;102196.16;;;1.70;100.00
59825;BME280;45703;50.898;6.054;2023-02-13T06:19:22;102194.72;;;1.66;100.00
59825;BME280;45703;50.898;6.054;2023-02-13T06:21:56;102195.81;;;1.63;100.00
59825;BME280;45703;50.898;6.054;2023-02-13T06:24:31;102200.47;;;1.60;100.00
59825;BME280;45703;50.898;6.054;2023-02-13T06:27:00;102198.06;;;1.57;100.00
59825;BME280;45703;50.898;6.054;2023-02-13T06:29:26;102197.34;;;1.55;100.00
59825;BME280;45703;50.898;6.054;2023-02-13T06:31:51;102194.00;;;1.53;100.00
59825;BME280;45703;50.898;6.054;2023-02-13T06:34:17;102194.94;;;1.52;100.00
59825;BME280;45703;50.898;6.054;2023-02-13T06:36:43;102190.63;;;1.51;100.00
59825;BME280;45703;50.898;6.054;2023-02-13T06:39:13;102190.88;;;1.48;100.00
59825;BME280;45703;50.898;6.054;2023-02-13T06:41:39;102192.78;;;1.46;100.00
59825;BME280;45703;50.898;6.054;2023-02-13T06:44:05;102189.28;;;1.45;100.00
59825;BME280;45703;50.898;6.054;2023-02-13T06:46:32;102191.94;;;1.45;100.00
59825;BME280;45703;50.898;6.054;2023-02-13T06:48:57;102194.47;;;1.47;100.00
59825;BME280;45703;50.898;6.054;2023-02-13T06:51:23;102190.88;;;1.48;100.00
59825;BME280;45703;50.898;6.054;2023-02-13T06:53:49;102198.63;;;1.49;100.00
59825;BME280;45703;50.898;6.054;2023-02-13T06:56:14;102190.63;;;1.51;100.00
59825;BME280;45703;50.898;6.054;2023-02-13T07:04:55;102195.34;;;1.58;100.00
59825;BME280;45703;50.898;6.054;2023-02-13T07:10:52;102196.63;;;1.64;100.00
59825;BME280;45703;50.898;6.054;2023-02-13T07:13:24;102188.41;;;1.68;100.00
59825;BME280;45703;50.898;6.054;2023-02-13T07:16:28;102195.13;;;1.72;100.00
59825;BME280;45703;50.898;6.054;2023-02-13T07:19:28;102188.53;;;1.78;100.00
59825;BME280;45703;50.898;6.054;2023-02-13T07:22:29;102194.31;;;1.83;100.00
59825;BME280;45703;50.898;6.054;2023-02-13T07:24:58;102192.16;;;1.88;100.00
59825;BME280;45703;50.898;6.054;2023-02-13T07:27:24;102191.78;;;1.92;100.00
59825;BME280;45703;50.898;6.054;2023-02-13T07:29:49;102196.69;;;1.97;100.00
59825;BME280;45703;50.898;6.054;2023-02-13T07:32:17;102202.44;;;2.02;100.00
59825;BME280;45703;50.898;6.054;2023-02-13T07:34:53;102192.38;;;2.07;100.00
59825;BME280;45703;50.898;6.054;2023-02-13T07:37:18;102200.75;;;2.12;100.00
59825;BME280;45703;50.898;6.054;2023-02-13T07:39:43;102202.19;;;2.16;100.00
59825;BME280;45703;50.898;6.054;2023-02-13T07:42:08;102206.16;;;2.21;100.00
59825;BME280;45703;50.898;6.054;2023-02-13T07:44:34;102198.84;;;2.25;100.00
59825;BME280;45703;50.898;6.054;2023-02-13T07:46:59;102195.84;;;2.29;100.00
59825;BME280;45703;50.898;6.054;2023-02-13T07:49:25;102199.81;;;2.35;100.00
59825;BME280;45703;50.898;6.054;2023-02-13T07:51:50;102203.75;;;2.40;100.00
59825;BME280;45703;50.898;6.054;2023-02-13T07:54:15;102205.91;;;2.46;100.00
59825;BME280;45703;50.898;6.054;2023-02-13T07:56:41;102205.41;;;2.52;100.00
59825;BME280;45703;50.898;6.054;2023-02-13T07:59:06;102202.31;;;2.58;100.00
59825;BME280;45703;50.898;6.054;2023-02-13T08:01:31;102200.13;;;2.63;100.00
59825;BME280;45703;50.898;6.054;2023-02-13T08:03:56;102205.03;;;2.68;100.00
59825;BME280;45703;50.898;6.054;2023-02-13T08:06:22;102203.81;;;2.72;100.00
59825;BME280;45703;50.898;6.054;2023-02-13T08:08:47;102211.38;;;2.76;100.00
59825;BME280;45703;50.898;6.054;2023-02-13T08:11:30;102216.25;;;2.80;100.00
59825;BME280;45703;50.898;6.054;2023-02-13T08:14:15;102214.81;;;2.87;100.00
59825;BME280;45703;50.898;6.054;2023-02-13T08:16:40;102224.88;;;2.93;100.00
59825;BME280;45703;50.898;6.054;2023-02-13T08:19:05;102216.47;;;2.99;100.00
59825;BME280;45703;50.898;6.054;2023-02-13T08:21:30;102227.47;;;3.04;100.00
59825;BME280;45703;50.898;6.054;2023-02-13T08:23:56;102226.16;;;3.10;100.00
59825;BME280;45703;50.898;6.054;2023-02-13T08:26:21;102227.31;;;3.17;100.00
59825;BME280;45703;50.898;6.054;2023-02-13T08:28:46;102227.63;;;3.23;100.00
59825;BME280;45703;50.898;6.054;2023-02-13T08:31:12;102226.16;;;3.30;100.00
59825;BME280;45703;50.898;6.054;2023-02-13T08:33:37;102221.13;;;3.38;100.00
59825;BME280;45703;50.898;6.054;2023-02-13T08:36:03;102234.63;;;3.45;100.00
59825;BME280;45703;50.898;6.054;2023-02-13T08:38:29;102230.50;;;3.52;100.00
59825;BME280;45703;50.898;6.054;2023-02-13T08:40:57;102229.88;;;3.59;100.00
59825;BME280;45703;50.898;6.054;2023-02-13T08:43:23;102229.38;;;3.65;100.00
59825;BME280;45703;50.898;6.054;2023-02-13T08:45:48;102228.59;;;3.74;100.00
59825;BME280;45703;50.898;6.054;2023-02-13T08:48:14;102231.41;;;3.82;100.00
59825;BME280;45703;50.898;6.054;2023-02-13T08:50:39;102237.03;;;3.89;100.00
59825;BME280;45703;50.898;6.054;2023-02-13T08:53:04;102239.03;;;3.96;100.00
59825;BME280;45703;50.898;6.054;2023-02-13T08:55:33;102239.22;;;4.04;100.00
59825;BME280;45703;50.898;6.054;2023-02-13T08:57:59;102234.09;;;4.12;100.00
59825;BME280;45703;50.898;6.054;2023-02-13T09:00:25;102242.22;;;4.20;100.00
59825;BME280;45703;50.898;6.054;2023-02-13T09:02:50;102236.13;;;4.29;100.00
59825;BME280;45703;50.898;6.054;2023-02-13T09:05:15;102241.47;;;4.38;100.00
59825;BME280;45703;50.898;6.054;2023-02-13T09:07:41;102246.91;;;4.46;100.00
59825;BME280;45703;50.898;6.054;2023-02-13T09:10:06;102242.66;;;4.55;100.00
59825;BME280;45703;50.898;6.054;2023-02-13T09:12:31;102244.47;;;4.64;100.00
59825;BME280;45703;50.898;6.054;2023-02-13T09:14:57;102242.97;;;4.71;100.00
59825;BME280;45703;50.898;6.054;2023-02-13T09:17:22;102238.81;;;4.78;100.00
59825;BME280;45703;50.898;6.054;2023-02-13T09:19:47;102243.44;;;4.85;100.00
59825;BME280;45703;50.898;6.054;2023-02-13T09:22:13;102237.47;;;4.93;100.00
59825;BME280;45703;50.898;6.054;2023-02-13T09:24:40;102240.25;;;5.01;100.00
59825;BME280;45703;50.898;6.054;2023-02-13T09:27:06;102237.75;;;5.09;100.00
59825;BME280;45703;50.898;6.054;2023-02-13T09:29:33;102244.19;;;5.16;100.00
59825;BME280;45703;50.898;6.054;2023-02-13T09:31:59;102245.00;;;5.26;100.00
59825;BME280;45703;50.898;6.054;2023-02-13T09:34:25;102242.66;;;5.32;100.00
59825;BME280;45703;50.898;6.054;2023-02-13T09:36:54;102236.69;;;5.40;100.00
59825;BME280;45703;50.898;6.054;2023-02-13T09:39:20;102237.63;;;5.48;100.00
59825;BME280;45703;50.898;6.054;2023-02-13T09:41:46;102236.66;;;5.59;100.00
59825;BME280;45703;50.898;6.054;2023-02-13T09:44:15;102247.25;;;5.68;100.00
59825;BME280;45703;50.898;6.054;2023-02-13T09:47:10;102247.22;;;5.77;100.00
59825;BME280;45703;50.898;6.054;2023-02-13T09:49:40;102248.09;;;5.87;100.00
59825;BME280;45703;50.898;6.054;2023-02-13T09:52:08;102250.59;;;5.98;100.00
59825;BME280;45703;50.898;6.054;2023-02-13T09:54:34;102253.34;;;6.06;100.00
59825;BME280;45703;50.898;6.054;2023-02-13T10:18:44;102259.03;;;6.84;100.00
59825;BME280;45703;50.898;6.054;2023-02-13T10:21:12;102251.19;;;6.92;100.00
59825;BME280;45703;50.898;6.054;2023-02-13T10:23:46;102247.75;;;7.00;100.00
59825;BME280;45703;50.898;6.054;2023-02-13T10:29:47;102252.41;;;7.15;100.00
59825;BME280;45703;50.898;6.054;2023-02-13T10:35:02;102255.41;;;7.29;100.00
59825;BME280;45703;50.898;6.054;2023-02-13T10:37:37;102255.59;;;7.36;100.00
59825;BME280;45703;50.898;6.054;2023-02-13T10:40:04;102253.19;;;7.42;100.00
59825;BME280;45703;50.898;6.054;2023-02-13T10:42:43;102257.22;;;7.46;100.00
59825;BME280;45703;50.898;6.054;2023-02-13T10:48:01;102257.81;;;7.58;100.00
59825;BME280;45703;50.898;6.054;2023-02-13T10:50:33;102243.91;;;7.64;100.00
59825;BME280;45703;50.898;6.054;2023-02-13T10:58:14;102242.72;;;7.84;100.00
59825;BME280;45703;50.898;6.054;2023-02-13T11:03:18;102232.88;;;7.94;100.00
59825;BME280;45703;50.898;6.054;2023-02-13T11:05:43;102229.56;;;8.00;100.00
59825;BME280;45703;50.898;6.054;2023-02-13T11:08:14;102230.75;;;8.05;100.00
59825;BME280;45703;50.898;6.054;2023-02-13T11:10:40;102222.31;;;8.10;100.00
59825;BME280;45703;50.898;6.054;2023-02-13T11:13:16;102222.69;;;8.15;100.00
59825;BME280;45703;50.898;6.054;2023-02-13T11:15:41;102223.06;;;8.20;100.00
59825;BME280;45703;50.898;6.054;2023-02-13T11:18:20;102216.28;;;8.25;100.00
59825;BME280;45703;50.898;6.054;2023-02-13T11:20:45;102213.81;;;8.32;100.00
59825;BME280;45703;50.898;6.054;2023-02-13T11:26:05;102214.53;;;8.42;100.00
59825;BME280;45703;50.898;6.054;2023-02-13T11:28:30;102206.75;;;8.48;100.00
59825;BME280;45703;50.898;6.054;2023-02-13T11:31:09;102216.75;;;8.54;100.00
59825;BME280;45703;50.898;6.054;2023-02-13T11:33:35;102208.97;;;8.60;100.00
59825;BME280;45703;50.898;6.054;2023-02-13T11:36:43;102205.66;;;8.66;100.00
59825;BME280;45703;50.898;6.054;2023-02-13T11:39:05;102194.34;;;8.72;100.00
59825;BME280;45703;50.898;6.054;2023-02-13T11:41:36;102193.72;;;8.78;99.39
59825;BME280;45703;50.898;6.054;2023-02-13T11:44:03;102189.41;;;8.85;100.00
59825;BME280;45703;50.898;6.054;2023-02-13T11:46:29;102184.41;;;8.90;100.00
59825;BME280;45703;50.898;6.054;2023-02-13T11:48:56;102177.47;;;8.97;100.00
59825;BME280;45703;50.898;6.054;2023-02-13T11:54:02;102176.94;;;9.10;99.92
59825;BME280;45703;50.898;6.054;2023-02-13T11:56:35;102169.97;;;9.17;99.81
59825;BME280;45703;50.898;6.054;2023-02-13T11:59:10;102157.81;;;9.22;99.99
59825;BME280;45703;50.898;6.054;2023-02-13T12:01:37;102170.47;;;9.28;99.67
59825;BME280;45703;50.898;6.054;2023-02-13T12:06:28;102166.81;;;9.37;99.66
59825;BME280;45703;50.898;6.054;2023-02-13T12:08:53;102166.31;;;9.42;99.40
59825;BME280;45703;50.898;6.054;2023-02-13T12:13:56;102163.81;;;9.56;98.44
59825;BME280;45703;50.898;6.054;2023-02-13T12:18:48;102168.47;;;9.70;97.76
59825;BME280;45703;50.898;6.054;2023-02-13T12:26:43;102161.41;;;9.93;98.36
59825;BME280;45703;50.898;6.054;2023-02-13T12:37:15;102151.38;;;10.19;97.02
59825;BME280;45703;50.898;6.054;2023-02-13T12:42:35;102140.31;;;10.30;97.77
59825;BME280;45703;50.898;6.054;2023-02-13T12:45:09;102140.63;;;10.35;97.64
59825;BME280;45703;50.898;6.054;2023-02-13T12:47:41;102134.28;;;10.36;96.90
59825;BME280;45703;50.898;6.054;2023-02-13T13:22:36;102100.88;;;10.93;96.16
59825;BME280;45703;50.898;6.054;2023-02-13T13:27:35;102104.53;;;11.00;95.55
59825;BME280;45703;50.898;6.054;2023-02-13T13:30:05;102101.28;;;11.04;96.22
59825;BME280;45703;50.898;6.054;2023-02-13T13:32:37;102096.78;;;11.05;95.82
59825;BME280;45703;50.898;6.054;2023-02-13T13:35:03;102093.56;;;11.09;95.97
59825;BME280;45703;50.898;6.054;2023-02-13T13:37:36;102091.75;;;11.10;95.72
59825;BME280;45703;50.898;6.054;2023-02-13T13:42:58;102092.38;;;11.12;95.17
59825;BME280;45703;50.898;6.054;2023-02-13T13:50:56;102086.44;;;11.24;90.06
59825;BME280;45703;50.898;6.054;2023-02-13T13:53:21;102086.72;;;11.29;93.69
59825;BME280;45703;50.898;6.054;2023-02-13T14:03:41;102077.53;;;11.46;86.59
59825;BME280;45703;50.898;6.054;2023-02-13T14:06:11;102079.66;;;11.50;92.29
59825;BME280;45703;50.898;6.054;2023-02-13T14:11:51;102080.31;;;11.52;90.54
59825;BME280;45703;50.898;6.054;2023-02-13T14:13:51;102074.63;;;11.55;92.20
59825;BME280;45703;50.898;6.054;2023-02-13T14:16:39;102078.13;;;11.56;92.12
59825;BME280;45703;50.898;6.054;2023-02-13T14:19:05;102075.28;;;11.57;91.75
59825;BME280;45703;50.898;6.054;2023-02-13T14:21:47;102079.63;;;11.58;92.47
59825;BME280;45703;50.898;6.054;2023-02-13T14:24:12;102065.59;;;11.56;92.10
59825;BME280;45703;50.898;6.054;2023-02-13T14:26:38;102066.25;;;11.58;90.64
59825;BME280;45703;50.898;6.054;2023-02-13T14:31:39;102066.03;;;11.60;93.43
59825;BME280;45703;50.898;6.054;2023-02-13T14:36:45;102057.19;;;11.59;93.36
59825;BME280;45703;50.898;6.054;2023-02-13T14:47:10;102054.22;;;11.54;93.67
59825;BME280;45703;50.898;6.054;2023-02-13T14:49:39;102053.56;;;11.52;93.08
59825;BME280;45703;50.898;6.054;2023-02-13T14:52:07;102045.72;;;11.51;92.71
59825;BME280;45703;50.898;6.054;2023-02-13T14:54:49;102041.38;;;11.50;93.40
59825;BME280;45703;50.898;6.054;2023-02-13T14:57:17;102038.91;;;11.48;93.17
59825;BME280;45703;50.898;6.054;2023-02-13T14:59:47;102039.88;;;11.47;93.49
59825;BME280;45703;50.898;6.054;2023-02-13T15:02:15;102038.22;;;11.46;93.23
59825;BME280;45703;50.898;6.054;2023-02-13T15:04:43;102034.09;;;11.44;93.35
59825;BME280;45703;50.898;6.054;2023-02-13T15:07:14;102032.44;;;11.43;92.72
59825;BME280;45703;50.898;6.054;2023-02-13T15:09:44;102025.41;;;11.42;92.85
59825;BME280;45703;50.898;6.054;2023-02-13T15:12:27;102036.00;;;11.36;87.14
59825;BME280;45703;50.898;6.054;2023-02-13T15:14:52;102028.63;;;11.38;90.43
59825;BME280;45703;50.898;6.054;2023-02-13T15:17:22;102026.97;;;11.37;93.16
59825;BME280;45703;50.898;6.054;2023-02-13T15:20:34;102032.50;;;11.35;93.01
59825;BME280;45703;50.898;6.054;2023-02-13T15:22:38;102039.03;;;11.33;91.59
59825;BME280;45703;50.898;6.054;2023-02-13T15:25:04;102031.88;;;11.33;93.31
59825;BME280;45703;50.898;6.054;2023-02-13T15:27:31;102029.34;;;11.32;93.59
59825;BME280;45703;50.898;6.054;2023-02-13T15:29:59;102036.75;;;11.30;92.45
59825;BME280;45703;50.898;6.054;2023-02-13T15:32:26;102028.06;;;11.28;93.50
59825;BME280;45703;50.898;6.054;2023-02-13T15:34:51;102032.97;;;11.24;93.41
59825;BME280;45703;50.898;6.054;2023-02-13T15:37:21;102041.53;;;11.20;92.94
59825;BME280;45703;50.898;6.054;2023-02-13T15:39:46;102035.25;;;11.13;90.68
59825;BME280;45703;50.898;6.054;2023-02-13T15:42:11;102034.75;;;11.09;92.31
59825;BME280;45703;50.898;6.054;2023-02-13T15:44:37;102036.69;;;11.01;88.71
59825;BME280;45703;50.898;6.054;2023-02-13T15:47:05;102037.69;;;11.00;92.83
59825;BME280;45703;50.898;6.054;2023-02-13T15:49:38;102033.06;;;10.94;91.84
59825;BME280;45703;50.898;6.054;2023-02-13T15:52:07;102029.94;;;10.90;93.33
59825;BME280;45703;50.898;6.054;2023-02-13T15:54:33;102028.78;;;10.85;93.18
59825;BME280;45703;50.898;6.054;2023-02-13T15:57:00;102026.03;;;10.78;91.57
59825;BME280;45703;50.898;6.054;2023-02-13T15:59:34;102022.88;;;10.75;93.23
59825;BME280;45703;50.898;6.054;2023-02-13T16:02:00;102023.59;;;10.69;92.99
59825;BME280;45703;50.898;6.054;2023-02-13T16:04:27;102021.44;;;10.64;93.98
59825;BME280;45703;50.898;6.054;2023-02-13T16:06:54;102017.00;;;10.57;93.94
59825;BME280;45703;50.898;6.054;2023-02-13T16:11:56;102011.25;;;10.45;93.75
59825;BME280;45703;50.898;6.054;2023-02-13T16:14:23;102021.13;;;10.37;93.89
59825;BME280;45703;50.898;6.054;2023-02-13T16:17:06;102020.19;;;10.30;93.93
59825;BME280;45703;50.898;6.054;2023-02-13T16:22:29;102028.28;;;10.14;93.95
59825;BME280;45703;50.898;6.054;2023-02-13T16:25:03;102021.34;;;10.05;94.07
59825;BME280;45703;50.898;6.054;2023-02-13T16:27:30;102029.00;;;10.00;95.18
59825;BME280;45703;50.898;6.054;2023-02-13T16:29:59;102025.34;;;9.93;95.60
59825;BME280;45703;50.898;6.054;2023-02-13T16:32:26;102024.38;;;9.86;96.09
59825;BME280;45703;50.898;6.054;2023-02-13T16:34:52;102030.25;;;9.82;95.98
59825;BME280;45703;50.898;6.054;2023-02-13T16:37:32;102025.75;;;9.74;96.16
59825;BME280;45703;50.898;6.054;2023-02-13T16:40:18;102025.78;;;9.66;96.47
59825;BME280;45703;50.898;6.054;2023-02-13T16:42:43;102033.63;;;9.60;96.31